sensor_id;sensor_type;location;lat;lon;timestamp;P1;durP1;ratioP1;P2;durP2;ratioP2
5702;SDS011;2876;51.738;10.050;2022-07-11T00:06:00;2.20;;;1.80;;
5702;SDS011;2876;51.738;10.050;2022-07-11T00:12:02;2.13;;;1.90;;
5702;SDS011;2876;51.738;10.050;2022-07-11T00:18:06;1.67;;;1.50;;
5702;SDS011;2876;51.738;10.050;2022-07-11T00:30:37;3.00;;;1.97;;
5702;SDS011;2876;51.738;10.050;2022-07-11T00:36:40;6.30;;;1.80;;
5702;SDS011;2876;51.738;10.050;2022-07-11T00:42:42;2.13;;;1.93;;
5702;SDS011;2876;51.738;10.050;2022-07-11T00:48:44;7.60;;;1.67;;
5702;SDS011;2876;51.738;10.050;2022-07-11T00:54:46;3.53;;;1.90;;
5702;SDS011;2876;51.738;10.050;2022-07-11T01:00:48;2.30;;;1.90;;
5702;SDS011;2876;51.738;10.050;2022-07-11T01:06:51;2.33;;;2.13;;
5702;SDS011;2876;51.738;10.050;2022-07-11T01:12:53;3.50;;;1.93;;
5702;SDS011;2876;51.738;10.050;2022-07-11T01:18:56;2.97;;;2.40;;
5702;SDS011;2876;51.738;10.050;2022-07-11T01:24:58;5.43;;;2.50;;
5702;SDS011;2876;51.738;10.050;2022-07-11T01:31:00;4.03;;;2.43;;
5702;SDS011;2876;51.738;10.050;2022-07-11T01:37:02;2.80;;;2.60;;
5702;SDS011;2876;51.738;10.050;2022-07-11T01:43:04;3.67;;;2.77;;
5702;SDS011;2876;51.738;10.050;2022-07-11T01:49:07;5.17;;;2.53;;
5702;SDS011;2876;51.738;10.050;2022-07-11T01:55:08;5.10;;;3.13;;
5702;SDS011;2876;51.738;10.050;2022-07-11T02:01:12;5.83;;;2.73;;
5702;SDS011;2876;51.738;10.050;2022-07-11T02:07:15;3.27;;;2.60;;
5702;SDS011;2876;51.738;10.050;2022-07-11T02:13:37;2.90;;;2.70;;
5702;SDS011;2876;51.738;10.050;2022-07-11T02:19:39;3.60;;;2.67;;
5702;SDS011;2876;51.738;10.050;2022-07-11T02:25:41;2.70;;;2.50;;
5702;SDS011;2876;51.738;10.050;2022-07-11T02:31:44;4.00;;;2.40;;
5702;SDS011;2876;51.738;10.050;2022-07-11T02:37:47;2.47;;;2.27;;
5702;SDS011;2876;51.738;10.050;2022-07-11T02:43:49;3.00;;;2.80;;
5702;SDS011;2876;51.738;10.050;2022-07-11T02:49:52;4.77;;;3.50;;
5702;SDS011;2876;51.738;10.050;2022-07-11T02:55:54;7.60;;;4.60;;
5702;SDS011;2876;51.738;10.050;2022-07-11T03:01:56;5.30;;;3.70;;
5702;SDS011;2876;51.738;10.050;2022-07-11T03:07:58;7.23;;;4.73;;
5702;SDS011;2876;51.738;10.050;2022-07-11T03:14:00;4.07;;;3.77;;
5702;SDS011;2876;51.738;10.050;2022-07-11T03:20:03;6.27;;;4.03;;
5702;SDS011;2876;51.738;10.050;2022-07-11T03:26:07;4.00;;;3.10;;
5702;SDS011;2876;51.738;10.050;2022-07-11T03:32:09;4.73;;;3.30;;
5702;SDS011;2876;51.738;10.050;2022-07-11T03:38:11;4.70;;;3.93;;
5702;SDS011;2876;51.738;10.050;2022-07-11T03:44:14;4.53;;;4.10;;
5702;SDS011;2876;51.738;10.050;2022-07-11T03:50:16;5.80;;;4.40;;
5702;SDS011;2876;51.738;10.050;2022-07-11T03:56:18;5.37;;;4.20;;
5702;SDS011;2876;51.738;10.050;2022-07-11T04:02:23;6.07;;;4.17;;
5702;SDS011;2876;51.738;10.050;2022-07-11T04:08:25;8.77;;;4.47;;
5702;SDS011;2876;51.738;10.050;2022-07-11T04:14:27;6.40;;;4.03;;
5702;SDS011;2876;51.738;10.050;2022-07-11T04:20:29;8.80;;;5.07;;
5702;SDS011;2876;51.738;10.050;2022-07-11T04:26:31;10.27;;;5.53;;
5702;SDS011;2876;51.738;10.050;2022-07-11T04:32:33;10.67;;;7.07;;
5702;SDS011;2876;51.738;10.050;2022-07-11T04:38:37;7.20;;;6.13;;
5702;SDS011;2876;51.738;10.050;2022-07-11T04:44:45;10.67;;;6.03;;
5702;SDS011;2876;51.738;10.050;2022-07-11T04:50:47;9.53;;;5.13;;
5702;SDS011;2876;51.738;10.050;2022-07-11T04:56:49;9.97;;;5.70;;
5702;SDS011;2876;51.738;10.050;2022-07-11T05:02:51;13.20;;;5.60;;
5702;SDS011;2876;51.738;10.050;2022-07-11T05:08:53;6.20;;;4.80;;
5702;SDS011;2876;51.738;10.050;2022-07-11T05:14:55;5.50;;;4.80;;
5702;SDS011;2876;51.738;10.050;2022-07-11T05:20:59;5.80;;;4.80;;
5702;SDS011;2876;51.738;10.050;2022-07-11T05:27:01;15.93;;;5.47;;
5702;SDS011;2876;51.738;10.050;2022-07-11T05:33:04;7.40;;;4.30;;
5702;SDS011;2876;51.738;10.050;2022-07-11T05:39:06;6.10;;;3.93;;
5702;SDS011;2876;51.738;10.050;2022-07-11T05:45:08;5.77;;;4.20;;
5702;SDS011;2876;51.738;10.050;2022-07-11T05:51:11;5.70;;;4.63;;
5702;SDS011;2876;51.738;10.050;2022-07-11T05:57:15;6.27;;;5.60;;
5702;SDS011;2876;51.738;10.050;2022-07-11T06:03:17;11.63;;;6.00;;
5702;SDS011;2876;51.738;10.050;2022-07-11T06:09:19;9.97;;;4.90;;
5702;SDS011;2876;51.738;10.050;2022-07-11T06:15:21;5.43;;;4.63;;
5702;SDS011;2876;51.738;10.050;2022-07-11T06:21:24;4.63;;;3.40;;
5702;SDS011;2876;51.738;10.050;2022-07-11T06:27:27;4.30;;;3.43;;
5702;SDS011;2876;51.738;10.050;2022-07-11T06:33:29;8.57;;;3.70;;
5702;SDS011;2876;51.738;10.050;2022-07-11T06:39:31;5.30;;;4.67;;
5702;SDS011;2876;51.738;10.050;2022-07-11T06:45:33;3.30;;;3.00;;
5702;SDS011;2876;51.738;10.050;2022-07-11T06:51:35;5.57;;;3.47;;
5702;SDS011;2876;51.738;10.050;2022-07-11T06:57:37;6.60;;;3.63;;
5702;SDS011;2876;51.738;10.050;2022-07-11T07:03:39;7.73;;;3.50;;
5702;SDS011;2876;51.738;10.050;2022-07-11T07:09:41;5.73;;;3.47;;
5702;SDS011;2876;51.738;10.050;2022-07-11T07:15:43;3.73;;;2.93;;
5702;SDS011;2876;51.738;10.050;2022-07-11T07:21:46;3.37;;;2.70;;
5702;SDS011;2876;51.738;10.050;2022-07-11T07:27:48;3.60;;;3.00;;
5702;SDS011;2876;51.738;10.050;2022-07-11T07:33:50;2.83;;;2.50;;
5702;SDS011;2876;51.738;10.050;2022-07-11T07:39:52;3.23;;;2.90;;
5702;SDS011;2876;51.738;10.050;2022-07-11T07:45:54;7.20;;;3.10;;
5702;SDS011;2876;51.738;10.050;2022-07-11T07:51:56;4.93;;;2.80;;
5702;SDS011;2876;51.738;10.050;2022-07-11T07:57:58;3.13;;;2.60;;
5702;SDS011;2876;51.738;10.050;2022-07-11T08:04:02;2.07;;;1.83;;
5702;SDS011;2876;51.738;10.050;2022-07-11T08:10:05;5.17;;;2.27;;
5702;SDS011;2876;51.738;10.050;2022-07-11T08:16:08;4.57;;;1.97;;
5702;SDS011;2876;51.738;10.050;2022-07-11T08:22:10;2.30;;;2.10;;
5702;SDS011;2876;51.738;10.050;2022-07-11T08:28:12;2.63;;;2.03;;
5702;SDS011;2876;51.738;10.050;2022-07-11T08:34:14;1.60;;;1.50;;
5702;SDS011;2876;51.738;10.050;2022-07-11T08:40:16;1.47;;;1.37;;
5702;SDS011;2876;51.738;10.050;2022-07-11T08:46:18;1.30;;;1.20;;
5702;SDS011;2876;51.738;10.050;2022-07-11T08:52:21;1.73;;;1.63;;
5702;SDS011;2876;51.738;10.050;2022-07-11T08:58:24;1.87;;;1.77;;
5702;SDS011;2876;51.738;10.050;2022-07-11T09:04:26;2.93;;;1.60;;
5702;SDS011;2876;51.738;10.050;2022-07-11T09:10:29;1.50;;;1.40;;
5702;SDS011;2876;51.738;10.050;2022-07-11T09:16:31;2.57;;;1.37;;
5702;SDS011;2876;51.738;10.050;2022-07-11T09:22:33;2.70;;;1.40;;
5702;SDS011;2876;51.738;10.050;2022-07-11T09:29:37;1.50;;;1.33;;
5702;SDS011;2876;51.738;10.050;2022-07-11T09:35:22;1.63;;;1.40;;
5702;SDS011;2876;51.738;10.050;2022-07-11T09:41:26;1.40;;;1.30;;
5702;SDS011;2876;51.738;10.050;2022-07-11T09:47:42;1.53;;;1.10;;
5702;SDS011;2876;51.738;10.050;2022-07-11T09:53:55;1.30;;;1.10;;
5702;SDS011;2876;51.738;10.050;2022-07-11T09:59:59;3.27;;;1.20;;
5702;SDS011;2876;51.738;10.050;2022-07-11T10:06:03;1.50;;;1.10;;
5702;SDS011;2876;51.738;10.050;2022-07-11T10:12:05;1.40;;;1.30;;
5702;SDS011;2876;51.738;10.050;2022-07-11T10:18:24;1.20;;;1.10;;
5702;SDS011;2876;51.738;10.050;2022-07-11T10:25:05;3.40;;;1.90;;
5702;SDS011;2876;51.738;10.050;2022-07-11T10:31:24;1.90;;;1.13;;
5702;SDS011;2876;51.738;10.050;2022-07-11T10:37:51;2.20;;;1.13;;
5702;SDS011;2876;51.738;10.050;2022-07-11T10:43:55;1.30;;;0.97;;
5702;SDS011;2876;51.738;10.050;2022-07-11T10:49:59;1.13;;;0.90;;
5702;SDS011;2876;51.738;10.050;2022-07-11T11:03:15;1.93;;;1.17;;
5702;SDS011;2876;51.738;10.050;2022-07-11T11:09:38;1.20;;;1.10;;
5702;SDS011;2876;51.738;10.050;2022-07-11T11:15:53;1.90;;;1.40;;
5702;SDS011;2876;51.738;10.050;2022-07-11T11:22:00;1.73;;;1.10;;
5702;SDS011;2876;51.738;10.050;2022-07-11T11:28:19;1.10;;;0.90;;
5702;SDS011;2876;51.738;10.050;2022-07-11T11:34:23;1.10;;;1.00;;
5702;SDS011;2876;51.738;10.050;2022-07-11T11:40:26;1.00;;;0.90;;
5702;SDS011;2876;51.738;10.050;2022-07-11T11:46:29;1.30;;;1.20;;
5702;SDS011;2876;51.738;10.050;2022-07-11T11:52:36;1.47;;;1.00;;
5702;SDS011;2876;51.738;10.050;2022-07-11T11:58:38;1.20;;;0.70;;
5702;SDS011;2876;51.738;10.050;2022-07-11T12:04:41;0.80;;;0.80;;
5702;SDS011;2876;51.738;10.050;2022-07-11T12:10:43;1.83;;;1.00;;
5702;SDS011;2876;51.738;10.050;2022-07-11T12:16:53;0.80;;;0.80;;
5702;SDS011;2876;51.738;10.050;2022-07-11T12:22:55;0.97;;;0.97;;
5702;SDS011;2876;51.738;10.050;2022-07-11T12:35:12;3.17;;;1.23;;
5702;SDS011;2876;51.738;10.050;2022-07-11T12:41:14;0.90;;;0.90;;
5702;SDS011;2876;51.738;10.050;2022-07-11T12:47:22;0.80;;;0.80;;
5702;SDS011;2876;51.738;10.050;2022-07-11T12:53:28;0.70;;;0.70;;
5702;SDS011;2876;51.738;10.050;2022-07-11T12:59:30;0.80;;;0.80;;
5702;SDS011;2876;51.738;10.050;2022-07-11T13:05:46;1.63;;;0.80;;
5702;SDS011;2876;51.738;10.050;2022-07-11T13:11:52;1.43;;;0.80;;
5702;SDS011;2876;51.738;10.050;2022-07-11T13:17:54;1.00;;;0.90;;
5702;SDS011;2876;51.738;10.050;2022-07-11T13:23:57;0.80;;;0.80;;
5702;SDS011;2876;51.738;10.050;2022-07-11T13:30:00;0.90;;;0.90;;
5702;SDS011;2876;51.738;10.050;2022-07-11T13:36:05;2.23;;;1.07;;
5702;SDS011;2876;51.738;10.050;2022-07-11T13:42:10;1.20;;;1.10;;
5702;SDS011;2876;51.738;10.050;2022-07-11T13:48:20;1.60;;;1.10;;
5702;SDS011;2876;51.738;10.050;2022-07-11T13:54:22;1.27;;;1.00;;
5702;SDS011;2876;51.738;10.050;2022-07-11T14:00:24;1.10;;;1.00;;
5702;SDS011;2876;51.738;10.050;2022-07-11T14:06:29;1.20;;;1.10;;
5702;SDS011;2876;51.738;10.050;2022-07-11T14:12:51;1.10;;;1.00;;
5702;SDS011;2876;51.738;10.050;2022-07-11T14:18:53;1.20;;;1.10;;
5702;SDS011;2876;51.738;10.050;2022-07-11T14:24:55;1.43;;;1.07;;
5702;SDS011;2876;51.738;10.050;2022-07-11T14:31:00;1.13;;;1.03;;
5702;SDS011;2876;51.738;10.050;2022-07-11T14:37:02;1.23;;;0.90;;
5702;SDS011;2876;51.738;10.050;2022-07-11T14:43:05;4.30;;;1.10;;
5702;SDS011;2876;51.738;10.050;2022-07-11T14:49:07;1.10;;;1.00;;
5702;SDS011;2876;51.738;10.050;2022-07-11T14:55:09;1.17;;;1.07;;
5702;SDS011;2876;51.738;10.050;2022-07-11T15:01:12;1.17;;;1.10;;
5702;SDS011;2876;51.738;10.050;2022-07-11T15:07:14;1.23;;;1.13;;
5702;SDS011;2876;51.738;10.050;2022-07-11T15:13:35;1.27;;;1.17;;
5702;SDS011;2876;51.738;10.050;2022-07-11T15:19:38;1.63;;;1.50;;
5702;SDS011;2876;51.738;10.050;2022-07-11T15:25:41;2.70;;;1.20;;
5702;SDS011;2876;51.738;10.050;2022-07-11T15:31:42;1.43;;;1.33;;
5702;SDS011;2876;51.738;10.050;2022-07-11T15:37:45;2.47;;;1.40;;
5702;SDS011;2876;51.738;10.050;2022-07-11T15:43:47;1.33;;;1.23;;
5702;SDS011;2876;51.738;10.050;2022-07-11T15:49:50;3.10;;;1.50;;
5702;SDS011;2876;51.738;10.050;2022-07-11T15:56:08;1.27;;;1.17;;
5702;SDS011;2876;51.738;10.050;2022-07-11T16:02:11;3.03;;;1.17;;
5702;SDS011;2876;51.738;10.050;2022-07-11T16:08:13;1.30;;;1.20;;
5702;SDS011;2876;51.738;10.050;2022-07-11T16:14:16;1.97;;;1.20;;
5702;SDS011;2876;51.738;10.050;2022-07-11T16:20:18;2.27;;;1.10;;
5702;SDS011;2876;51.738;10.050;2022-07-11T16:26:20;1.10;;;1.00;;
5702;SDS011;2876;51.738;10.050;2022-07-11T16:32:22;1.20;;;1.10;;
5702;SDS011;2876;51.738;10.050;2022-07-11T16:38:25;1.80;;;1.20;;
5702;SDS011;2876;51.738;10.050;2022-07-11T16:44:27;1.30;;;1.20;;
5702;SDS011;2876;51.738;10.050;2022-07-11T16:50:29;1.70;;;1.20;;
5702;SDS011;2876;51.738;10.050;2022-07-11T16:56:41;1.10;;;1.00;;
5702;SDS011;2876;51.738;10.050;2022-07-11T17:02:48;2.23;;;1.60;;
5702;SDS011;2876;51.738;10.050;2022-07-11T17:08:50;1.83;;;1.40;;
5702;SDS011;2876;51.738;10.050;2022-07-11T17:14:53;3.10;;;1.57;;
5702;SDS011;2876;51.738;10.050;2022-07-11T17:20:55;1.30;;;1.20;;
5702;SDS011;2876;51.738;10.050;2022-07-11T17:26:57;1.80;;;1.50;;
5702;SDS011;2876;51.738;10.050;2022-07-11T17:33:00;1.53;;;1.43;;
5702;SDS011;2876;51.738;10.050;2022-07-11T17:39:02;1.40;;;1.30;;
5702;SDS011;2876;51.738;10.050;2022-07-11T17:45:04;1.73;;;1.60;;
5702;SDS011;2876;51.738;10.050;2022-07-11T17:51:07;1.70;;;1.60;;
5702;SDS011;2876;51.738;10.050;2022-07-11T17:57:26;2.03;;;1.90;;
5702;SDS011;2876;51.738;10.050;2022-07-11T18:03:29;2.63;;;1.83;;
5702;SDS011;2876;51.738;10.050;2022-07-11T18:09:33;3.00;;;1.80;;
5702;SDS011;2876;51.738;10.050;2022-07-11T18:15:36;2.03;;;1.93;;
5702;SDS011;2876;51.738;10.050;2022-07-11T18:21:38;2.67;;;2.47;;
5702;SDS011;2876;51.738;10.050;2022-07-11T18:27:42;7.53;;;2.13;;
5702;SDS011;2876;51.738;10.050;2022-07-11T18:33:45;1.97;;;1.87;;
5702;SDS011;2876;51.738;10.050;2022-07-11T18:39:47;1.77;;;1.57;;
5702;SDS011;2876;51.738;10.050;2022-07-11T18:46:08;2.37;;;1.90;;
5702;SDS011;2876;51.738;10.050;2022-07-11T18:52:11;1.90;;;1.80;;
5702;SDS011;2876;51.738;10.050;2022-07-11T18:58:13;2.00;;;1.90;;
5702;SDS011;2876;51.738;10.050;2022-07-11T19:04:16;2.00;;;1.90;;
5702;SDS011;2876;51.738;10.050;2022-07-11T19:10:19;2.47;;;2.27;;
5702;SDS011;2876;51.738;10.050;2022-07-11T19:16:22;2.53;;;2.10;;
5702;SDS011;2876;51.738;10.050;2022-07-11T19:22:25;3.03;;;2.30;;
5702;SDS011;2876;51.738;10.050;2022-07-11T19:28:27;2.70;;;2.50;;
5702;SDS011;2876;51.738;10.050;2022-07-11T19:34:30;3.00;;;2.63;;
5702;SDS011;2876;51.738;10.050;2022-07-11T19:40:36;2.60;;;2.40;;
5702;SDS011;2876;51.738;10.050;2022-07-11T19:46:39;3.60;;;3.30;;
5702;SDS011;2876;51.738;10.050;2022-07-11T19:52:41;3.40;;;3.10;;
5702;SDS011;2876;51.738;10.050;2022-07-11T19:58:47;4.70;;;2.90;;
5702;SDS011;2876;51.738;10.050;2022-07-11T20:04:50;4.80;;;2.70;;
5702;SDS011;2876;51.738;10.050;2022-07-11T20:10:54;2.90;;;2.60;;
5702;SDS011;2876;51.738;10.050;2022-07-11T20:16:56;2.90;;;2.70;;
5702;SDS011;2876;51.738;10.050;2022-07-11T20:22:59;4.40;;;4.00;;
5702;SDS011;2876;51.738;10.050;2022-07-11T20:29:01;4.47;;;3.17;;
5702;SDS011;2876;51.738;10.050;2022-07-11T20:35:04;3.10;;;2.90;;
5702;SDS011;2876;51.738;10.050;2022-07-11T20:41:07;5.07;;;3.20;;
5702;SDS011;2876;51.738;10.050;2022-07-11T20:47:09;2.90;;;2.60;;
5702;SDS011;2876;51.738;10.050;2022-07-11T20:53:11;2.90;;;2.60;;
5702;SDS011;2876;51.738;10.050;2022-07-11T20:59:14;2.63;;;2.43;;
5702;SDS011;2876;51.738;10.050;2022-07-11T21:05:17;3.50;;;2.90;;
5702;SDS011;2876;51.738;10.050;2022-07-11T21:11:19;2.53;;;2.40;;
5702;SDS011;2876;51.738;10.050;2022-07-11T21:17:21;2.97;;;2.60;;
5702;SDS011;2876;51.738;10.050;2022-07-11T21:23:24;4.10;;;3.20;;
5702;SDS011;2876;51.738;10.050;2022-07-11T21:29:26;3.20;;;2.97;;
5702;SDS011;2876;51.738;10.050;2022-07-11T21:35:28;4.00;;;3.60;;
5702;SDS011;2876;51.738;10.050;2022-07-11T21:41:30;2.90;;;2.63;;
5702;SDS011;2876;51.738;10.050;2022-07-11T21:47:32;3.30;;;3.00;;
5702;SDS011;2876;51.738;10.050;2022-07-11T21:53:34;3.63;;;3.33;;
5702;SDS011;2876;51.738;10.050;2022-07-11T21:59:36;8.73;;;3.30;;
5702;SDS011;2876;51.738;10.050;2022-07-11T22:05:38;3.43;;;3.13;;
5702;SDS011;2876;51.738;10.050;2022-07-11T22:11:40;11.93;;;3.50;;
5702;SDS011;2876;51.738;10.050;2022-07-11T22:17:43;6.80;;;4.20;;
5702;SDS011;2876;51.738;10.050;2022-07-11T22:23:45;6.87;;;3.83;;
5702;SDS011;2876;51.738;10.050;2022-07-11T22:29:47;6.73;;;4.23;;
5702;SDS011;2876;51.738;10.050;2022-07-11T22:35:49;7.00;;;4.53;;
5702;SDS011;2876;51.738;10.050;2022-07-11T22:41:51;12.23;;;5.07;;
5702;SDS011;2876;51.738;10.050;2022-07-11T22:47:53;8.83;;;4.13;;
5702;SDS011;2876;51.738;10.050;2022-07-11T22:53:56;5.60;;;4.33;;
5702;SDS011;2876;51.738;10.050;2022-07-11T22:59:58;17.57;;;7.30;;
5702;SDS011;2876;51.738;10.050;2022-07-11T23:06:00;10.37;;;6.27;;
5702;SDS011;2876;51.738;10.050;2022-07-11T23:12:02;12.23;;;6.27;;
5702;SDS011;2876;51.738;10.050;2022-07-11T23:18:05;16.33;;;7.80;;
5702;SDS011;2876;51.738;10.050;2022-07-11T23:24:08;25.03;;;6.80;;
5702;SDS011;2876;51.738;10.050;2022-07-11T23:30:11;18.93;;;6.83;;
5702;SDS011;2876;51.738;10.050;2022-07-11T23:36:13;14.30;;;6.90;;
5702;SDS011;2876;51.738;10.050;2022-07-11T23:42:15;16.43;;;6.37;;
5702;SDS011;2876;51.738;10.050;2022-07-11T23:48:17;18.03;;;6.47;;
5702;SDS011;2876;51.738;10.050;2022-07-11T23:54:19;27.00;;;6.33;;
